createdAt,value
2022-12-31T00:02:58.387Z,-16.17
2022-12-31T00:06:03.175Z,-16.18
2022-12-31T00:09:08.445Z,-16.03
2022-12-31T00:12:11.653Z,-15.79
2022-12-31T00:15:14.763Z,-15.70
2022-12-31T00:18:18.358Z,-15.59
2022-12-31T00:21:22.400Z,-15.48
2022-12-31T00:24:26.272Z,-15.29
2022-12-31T00:27:33.557Z,-15.13
2022-12-31T00:30:36.902Z,-15.13
2022-12-31T00:33:40.719Z,-15.16
2022-12-31T00:36:46.778Z,-15.11
2022-12-31T00:39:49.680Z,-15.07
2022-12-31T00:42:53.952Z,-15.24
2022-12-31T00:45:57.285Z,-15.45
2022-12-31T00:49:01.106Z,-15.57
2022-12-31T00:52:05.284Z,-15.58
2022-12-31T00:55:09.653Z,-15.68
2022-12-31T00:58:13.457Z,-15.59
2022-12-31T01:01:27.265Z,-15.59
2022-12-31T01:04:31.165Z,-15.52
2022-12-31T01:07:53.959Z,-15.46
2022-12-31T01:11:16.235Z,-15.33
2022-12-31T01:14:21.210Z,-15.18
2022-12-31T01:17:43.365Z,-14.97
2022-12-31T01:21:04.715Z,-14.72
2022-12-31T01:24:09.037Z,-14.55
2022-12-31T01:27:12.646Z,-14.38
2022-12-31T01:30:33.940Z,-14.13
2022-12-31T01:33:37.294Z,-13.87
2022-12-31T01:36:40.243Z,-13.71
2022-12-31T01:39:43.904Z,-13.63
2022-12-31T01:43:05.189Z,-13.44
2022-12-31T01:46:10.658Z,-13.32
2022-12-31T01:53:05.739Z,-12.81
2022-12-31T01:56:27.486Z,-12.61
2022-12-31T01:59:32.421Z,-12.29
2022-12-31T02:02:35.717Z,-12.40
2022-12-31T02:06:20.321Z,-12.47
2022-12-31T02:09:24.238Z,-12.44
2022-12-31T02:16:35.018Z,-11.90
2022-12-31T02:20:11.910Z,-11.83
2022-12-31T02:23:44.190Z,-11.91
2022-12-31T02:27:01.337Z,-11.44
2022-12-31T02:30:10.526Z,-11.07
2022-12-31T02:33:31.851Z,-11.03
2022-12-31T02:36:56.574Z,-11.14
2022-12-31T02:40:01.121Z,-10.84
2022-12-31T02:43:05.089Z,-10.78
2022-12-31T02:46:22.658Z,-10.69
2022-12-31T02:49:32.037Z,-10.53
2022-12-31T02:52:44.850Z,-10.54
2022-12-31T02:56:06.965Z,-10.39
2022-12-31T02:59:38.787Z,-10.10
2022-12-31T03:02:44.794Z,-10.07
2022-12-31T03:05:50.225Z,-9.83
2022-12-31T03:09:11.874Z,-9.84
2022-12-31T03:12:34.595Z,-9.64
2022-12-31T03:15:39.489Z,-9.42
2022-12-31T03:19:06.015Z,-9.78
2022-12-31T03:22:28.000Z,-9.87
2022-12-31T03:25:35.264Z,-9.76
2022-12-31T03:28:57.573Z,-9.69
2022-12-31T03:32:00.433Z,-10.10
2022-12-31T03:35:04.777Z,-10.52
2022-12-31T03:38:08.491Z,-10.76
2022-12-31T03:41:12.577Z,-10.79
2022-12-31T03:44:34.546Z,-10.74
2022-12-31T03:47:38.867Z,-11.00
2022-12-31T03:51:00.915Z,-11.02
2022-12-31T03:54:05.010Z,-10.46
2022-12-31T03:57:07.986Z,-10.06
2022-12-31T04:00:15.031Z,-9.90
2022-12-31T04:03:18.149Z,-9.80
2022-12-31T04:06:21.400Z,-9.67
2022-12-31T04:09:25.099Z,-9.70
2022-12-31T04:12:28.587Z,-9.71
2022-12-31T04:15:51.464Z,-9.59
2022-12-31T04:18:55.543Z,-9.58
2022-12-31T04:21:59.337Z,-9.67
2022-12-31T04:25:02.796Z,-9.72
2022-12-31T04:28:25.947Z,-9.74
2022-12-31T04:31:30.227Z,-9.69
2022-12-31T04:38:13.087Z,-9.45
2022-12-31T04:41:19.051Z,-9.53
2022-12-31T04:44:41.645Z,-9.55
2022-12-31T04:47:46.090Z,-9.51
2022-12-31T04:50:50.747Z,-9.49
2022-12-31T04:57:15.069Z,-9.50
2022-12-31T05:00:36.555Z,-9.64
2022-12-31T05:03:41.120Z,-9.57
2022-12-31T05:06:44.021Z,-9.53
2022-12-31T05:09:47.309Z,-9.53
2022-12-31T05:12:51.049Z,-9.48
2022-12-31T05:15:54.965Z,-9.37
2022-12-31T05:19:16.931Z,-9.19
2022-12-31T05:22:29.536Z,-9.17
2022-12-31T05:25:33.864Z,-9.04
2022-12-31T05:28:37.134Z,-8.84
2022-12-31T05:31:40.079Z,-8.66
2022-12-31T05:34:44.272Z,-8.57
2022-12-31T05:38:06.454Z,-8.45
2022-12-31T05:44:32.315Z,-8.58
2022-12-31T05:47:36.248Z,-8.77
2022-12-31T05:50:39.192Z,-9.16
2022-12-31T05:53:45.765Z,-9.45
2022-12-31T05:57:07.853Z,-9.58
2022-12-31T06:00:12.758Z,-9.62
2022-12-31T06:03:16.893Z,-9.49
2022-12-31T06:06:39.175Z,-9.27
2022-12-31T06:10:01.368Z,-9.11
2022-12-31T06:13:05.135Z,-8.96
2022-12-31T06:16:10.191Z,-9.13
2022-12-31T06:19:13.615Z,-9.26
2022-12-31T06:22:17.249Z,-9.38
2022-12-31T06:25:21.103Z,-9.41
2022-12-31T06:28:25.570Z,-9.40
2022-12-31T06:31:30.616Z,-9.72
2022-12-31T06:34:34.700Z,-9.85
2022-12-31T06:37:38.448Z,-9.99
2022-12-31T06:41:05.772Z,-10.11
2022-12-31T06:44:08.937Z,-10.22
2022-12-31T06:47:13.315Z,-10.22
2022-12-31T06:50:35.953Z,-10.22
2022-12-31T06:53:39.657Z,-10.22
2022-12-31T07:00:03.868Z,-10.31
2022-12-31T07:03:19.399Z,-10.17
2022-12-31T07:07:08.874Z,-9.96
2022-12-31T07:10:50.256Z,-9.98
2022-12-31T07:14:11.797Z,-9.99
2022-12-31T07:17:55.900Z,-9.94
2022-12-31T07:20:59.175Z,-10.01
2022-12-31T07:27:56.964Z,-9.90
2022-12-31T07:31:37.602Z,-9.93
2022-12-31T07:35:41.260Z,-9.97
2022-12-31T07:39:09.092Z,-10.01
2022-12-31T07:42:21.889Z,-10.00
2022-12-31T07:45:33.604Z,-10.13
2022-12-31T07:48:37.547Z,-10.12
2022-12-31T07:52:00.095Z,-10.06
2022-12-31T07:55:04.564Z,-10.02
2022-12-31T07:58:37.337Z,-10.11
2022-12-31T08:02:20.647Z,-10.14
2022-12-31T08:06:02.917Z,-10.27
2022-12-31T08:09:33.179Z,-10.32
2022-12-31T08:13:03.111Z,-10.35
2022-12-31T08:16:11.938Z,-10.55
2022-12-31T08:19:52.088Z,-10.60
2022-12-31T08:23:00.877Z,-10.66
2022-12-31T08:26:24.433Z,-10.79
2022-12-31T08:29:42.049Z,-10.84
2022-12-31T08:33:22.450Z,-10.98
2022-12-31T08:36:49.842Z,-11.05
2022-12-31T08:40:14.180Z,-11.08
2022-12-31T08:44:13.610Z,-11.09
2022-12-31T08:47:55.046Z,-11.19
2022-12-31T08:54:42.567Z,-11.48
2022-12-31T08:57:55.199Z,-11.65
2022-12-31T09:01:00.376Z,-11.69
2022-12-31T09:04:21.014Z,-11.76
2022-12-31T09:08:08.243Z,-11.90
2022-12-31T09:11:23.111Z,-11.91
2022-12-31T09:14:42.610Z,-11.96
2022-12-31T09:18:05.286Z,-11.98
2022-12-31T09:21:12.024Z,-12.11
2022-12-31T09:24:16.923Z,-12.10
2022-12-31T09:27:45.238Z,-12.19
2022-12-31T09:30:54.716Z,-12.15
2022-12-31T09:34:10.499Z,-12.07
2022-12-31T09:37:37.173Z,-12.24
2022-12-31T09:40:49.384Z,-12.47
2022-12-31T09:44:34.622Z,-12.52
2022-12-31T09:47:49.827Z,-12.60
2022-12-31T09:51:00.399Z,-12.87
2022-12-31T09:54:07.234Z,-13.00
2022-12-31T09:57:41.710Z,-13.11
2022-12-31T10:01:23.366Z,-13.26
2022-12-31T10:08:53.055Z,-13.20
2022-12-31T10:12:15.264Z,-13.04
2022-12-31T10:16:00.032Z,-12.89
2022-12-31T10:19:24.577Z,-12.89
2022-12-31T10:23:00.435Z,-12.85
2022-12-31T10:27:00.260Z,-12.85
2022-12-31T10:30:14.179Z,-12.87
2022-12-31T10:33:59.481Z,-12.81
2022-12-31T10:37:19.442Z,-12.85
2022-12-31T10:40:43.847Z,-13.10
2022-12-31T10:44:36.757Z,-13.16
2022-12-31T10:48:17.442Z,-13.23
2022-12-31T10:51:50.892Z,-13.22
2022-12-31T10:55:12.734Z,-13.28
2022-12-31T10:58:25.244Z,-13.40
2022-12-31T11:01:59.521Z,-13.56
2022-12-31T11:05:36.886Z,-13.63
2022-12-31T11:09:21.617Z,-13.64
2022-12-31T11:12:34.096Z,-13.80
2022-12-31T11:16:16.337Z,-14.08
2022-12-31T11:19:48.489Z,-14.36
2022-12-31T11:23:03.520Z,-14.67
2022-12-31T11:26:31.351Z,-14.80
2022-12-31T11:29:49.032Z,-14.90
2022-12-31T11:33:26.480Z,-14.91
2022-12-31T11:37:25.519Z,-14.98
2022-12-31T11:40:42.652Z,-15.03
2022-12-31T11:44:22.714Z,-15.04
2022-12-31T11:48:29.524Z,-15.00
2022-12-31T11:51:31.023Z,-14.79
2022-12-31T11:54:55.422Z,-14.53
2022-12-31T11:58:08.703Z,-14.47
2022-12-31T12:01:21.141Z,-14.33
2022-12-31T12:04:24.699Z,-14.25
2022-12-31T12:07:30.618Z,-14.25
2022-12-31T12:14:30.821Z,-14.13
2022-12-31T12:17:35.126Z,-14.18
2022-12-31T12:20:41.474Z,-14.24
2022-12-31T12:23:59.979Z,-14.26
2022-12-31T12:27:04.061Z,-14.24
2022-12-31T12:30:20.550Z,-14.17
2022-12-31T12:33:25.934Z,-14.18
2022-12-31T12:36:29.461Z,-14.14
2022-12-31T12:39:52.829Z,-14.15
2022-12-31T12:42:56.068Z,-14.16
2022-12-31T12:46:27.610Z,-14.18
2022-12-31T12:49:54.713Z,-14.03
2022-12-31T12:53:08.590Z,-14.04
2022-12-31T12:56:40.502Z,-14.12
2022-12-31T12:59:57.125Z,-14.12
2022-12-31T13:03:48.713Z,-14.15
2022-12-31T13:07:15.287Z,-14.15
2022-12-31T13:15:06.961Z,-14.21
2022-12-31T13:18:24.691Z,-14.30
2022-12-31T13:21:34.964Z,-14.33
2022-12-31T13:24:47.884Z,-14.41
2022-12-31T13:31:27.061Z,-14.53
2022-12-31T13:34:55.188Z,-14.49
2022-12-31T13:38:28.992Z,-14.52
2022-12-31T13:41:53.174Z,-14.62
2022-12-31T13:45:05.103Z,-14.72
2022-12-31T13:48:32.936Z,-14.71
2022-12-31T13:52:01.849Z,-14.66
2022-12-31T13:55:29.211Z,-14.74
2022-12-31T13:58:40.569Z,-14.66
2022-12-31T14:01:54.624Z,-14.68
2022-12-31T14:05:10.119Z,-14.68
2022-12-31T14:08:32.683Z,-14.73
2022-12-31T14:12:02.277Z,-14.75
2022-12-31T14:15:19.493Z,-14.78
2022-12-31T14:18:34.951Z,-14.71
2022-12-31T14:22:20.453Z,-14.73
2022-12-31T14:25:34.664Z,-14.78
2022-12-31T14:32:23.234Z,-14.98
2022-12-31T14:35:55.420Z,-15.12
2022-12-31T14:42:39.199Z,-15.03
2022-12-31T14:46:14.237Z,-14.99
2022-12-31T14:49:38.609Z,-14.91
2022-12-31T14:53:13.648Z,-14.94
2022-12-31T14:56:37.854Z,-14.93
2022-12-31T14:59:55.296Z,-14.99
2022-12-31T15:03:05.273Z,-15.03
2022-12-31T15:06:44.429Z,-14.92
2022-12-31T15:10:19.441Z,-14.93
2022-12-31T15:13:32.429Z,-14.95
2022-12-31T15:16:56.073Z,-15.10
2022-12-31T15:20:24.579Z,-14.93
2022-12-31T15:23:44.423Z,-14.98
2022-12-31T15:27:00.071Z,-15.10
2022-12-31T15:30:03.675Z,-15.23
2022-12-31T15:33:11.183Z,-15.26
2022-12-31T15:36:18.966Z,-15.28
2022-12-31T15:39:48.332Z,-15.22
2022-12-31T15:43:40.713Z,-15.19
2022-12-31T15:46:45.268Z,-15.10
2022-12-31T15:49:48.989Z,-15.10
2022-12-31T15:53:16.483Z,-15.09
2022-12-31T15:56:35.499Z,-14.98
2022-12-31T16:00:02.561Z,-14.95
2022-12-31T16:03:23.072Z,-14.84
2022-12-31T16:06:29.946Z,-14.89
2022-12-31T16:09:36.420Z,-14.94
2022-12-31T16:12:44.700Z,-14.84
2022-12-31T16:16:12.494Z,-14.77
2022-12-31T16:19:30.736Z,-14.75
2022-12-31T16:22:56.603Z,-14.80
2022-12-31T16:26:03.041Z,-14.81
2022-12-31T16:29:25.586Z,-14.78
2022-12-31T16:32:39.166Z,-14.88
2022-12-31T16:39:27.830Z,-15.11
2022-12-31T16:42:32.205Z,-15.15
2022-12-31T16:45:57.831Z,-15.32
2022-12-31T16:49:21.698Z,-15.34
2022-12-31T16:52:45.678Z,-15.18
2022-12-31T16:56:00.557Z,-15.16
2022-12-31T16:59:31.906Z,-15.04
2022-12-31T17:02:46.377Z,-15.16
2022-12-31T17:06:03.203Z,-15.08
2022-12-31T17:09:21.158Z,-15.28
2022-12-31T17:12:25.471Z,-15.31
2022-12-31T17:15:40.702Z,-15.23
2022-12-31T17:18:45.319Z,-15.18
2022-12-31T17:21:49.149Z,-15.27
2022-12-31T17:25:00.377Z,-15.48
2022-12-31T17:28:07.824Z,-15.63
2022-12-31T17:31:45.890Z,-15.73
2022-12-31T17:34:51.143Z,-15.76
2022-12-31T17:37:54.584Z,-15.66
2022-12-31T17:41:07.107Z,-15.51
2022-12-31T17:44:32.457Z,-15.57
2022-12-31T17:47:41.432Z,-15.55
2022-12-31T17:50:53.573Z,-15.61
2022-12-31T17:53:59.488Z,-15.69
2022-12-31T17:57:03.794Z,-15.74
2022-12-31T18:00:26.694Z,-15.85
2022-12-31T18:03:49.042Z,-15.92
2022-12-31T18:06:53.050Z,-15.89
2022-12-31T18:10:15.192Z,-15.94
2022-12-31T18:13:21.670Z,-15.85
2022-12-31T18:16:25.740Z,-15.76
2022-12-31T18:20:03.082Z,-15.87
2022-12-31T18:22:53.740Z,-15.96
2022-12-31T18:25:57.486Z,-15.99
2022-12-31T18:29:03.100Z,-16.04
2022-12-31T18:32:06.642Z,-16.11
2022-12-31T18:36:07.228Z,-16.21
2022-12-31T18:38:56.849Z,-16.31
2022-12-31T18:42:00.875Z,-16.28
2022-12-31T18:45:22.708Z,-16.16
2022-12-31T18:48:26.831Z,-16.01
2022-12-31T18:51:32.487Z,-15.95
2022-12-31T18:54:55.472Z,-15.96
2022-12-31T18:57:58.781Z,-16.02
2022-12-31T19:01:02.507Z,-16.06
2022-12-31T19:04:21.382Z,-16.12
2022-12-31T19:07:30.831Z,-16.00
2022-12-31T19:10:34.863Z,-16.04
2022-12-31T19:13:38.835Z,-15.98
2022-12-31T19:16:41.818Z,-16.14
2022-12-31T19:19:45.020Z,-16.14
2022-12-31T19:22:48.517Z,-16.17
2022-12-31T19:25:52.432Z,-16.19
2022-12-31T19:28:56.035Z,-16.14
2022-12-31T19:35:23.103Z,-16.08
2022-12-31T19:38:29.536Z,-16.04
2022-12-31T19:41:34.073Z,-15.99
2022-12-31T19:44:56.273Z,-16.05
2022-12-31T19:47:59.510Z,-16.03
2022-12-31T19:51:03.477Z,-16.08
2022-12-31T19:54:07.075Z,-16.09
2022-12-31T19:57:10.657Z,-16.10
2022-12-31T20:00:17.323Z,-16.18
2022-12-31T20:03:21.214Z,-16.21
2022-12-31T20:06:24.601Z,-16.21
2022-12-31T20:09:27.524Z,-16.12
2022-12-31T20:12:31.107Z,-16.06
2022-12-31T20:15:52.538Z,-16.10
2022-12-31T20:18:55.573Z,-16.13
2022-12-31T20:22:16.779Z,-16.15
2022-12-31T20:25:38.934Z,-16.18
2022-12-31T20:28:42.581Z,-16.23
2022-12-31T20:35:42.293Z,-16.22
2022-12-31T20:38:45.563Z,-16.13
2022-12-31T20:41:49.451Z,-16.04
2022-12-31T20:45:11.818Z,-16.03
2022-12-31T20:48:14.762Z,-16.17
2022-12-31T20:51:19.465Z,-16.20
2022-12-31T20:54:22.690Z,-16.26
2022-12-31T20:57:31.599Z,-16.26
2022-12-31T21:00:37.118Z,-16.29
2022-12-31T21:07:06.302Z,-16.23
2022-12-31T21:10:10.173Z,-16.24
2022-12-31T21:13:13.147Z,-16.27
2022-12-31T21:16:17.225Z,-16.30
2022-12-31T21:19:20.964Z,-16.29
2022-12-31T21:22:25.087Z,-16.34
2022-12-31T21:25:47.021Z,-16.49
2022-12-31T21:28:49.887Z,-16.40
2022-12-31T21:32:11.072Z,-16.44
2022-12-31T21:35:43.779Z,-16.47
2022-12-31T21:42:28.214Z,-16.59
2022-12-31T21:45:59.589Z,-16.56
2022-12-31T21:49:21.021Z,-16.55
2022-12-31T21:52:42.394Z,-16.55
2022-12-31T21:56:05.477Z,-16.59
2022-12-31T21:59:27.454Z,-16.63
2022-12-31T22:02:59.461Z,-16.60
2022-12-31T22:06:16.740Z,-16.59
2022-12-31T22:09:38.251Z,-16.42
2022-12-31T22:12:59.581Z,-16.55
2022-12-31T22:16:05.762Z,-16.63
2022-12-31T22:19:28.297Z,-16.71
2022-12-31T22:22:32.241Z,-16.53
2022-12-31T22:25:35.972Z,-16.54
2022-12-31T22:28:43.290Z,-16.56
2022-12-31T22:31:46.170Z,-16.57
2022-12-31T22:34:49.558Z,-16.66
2022-12-31T22:38:12.292Z,-16.67
2022-12-31T22:41:19.445Z,-16.62
2022-12-31T22:44:23.208Z,-16.73
2022-12-31T22:47:26.137Z,-16.74
2022-12-31T22:50:47.782Z,-16.80
2022-12-31T22:53:50.757Z,-16.89
2022-12-31T22:56:53.902Z,-16.86
2022-12-31T23:00:16.166Z,-16.94
2022-12-31T23:03:20.093Z,-16.96
2022-12-31T23:06:24.664Z,-17.01
2022-12-31T23:09:46.209Z,-16.99
2022-12-31T23:12:49.094Z,-16.89
2022-12-31T23:16:11.500Z,-16.99
2022-12-31T23:19:34.229Z,-16.92
2022-12-31T23:22:55.778Z,-16.99
2022-12-31T23:26:01.988Z,-16.97
2022-12-31T23:29:05.534Z,-16.87
2022-12-31T23:32:08.670Z,-16.88
2022-12-31T23:35:12.714Z,-16.94
2022-12-31T23:38:18.960Z,-17.12
2022-12-31T23:41:23.520Z,-17.05
2022-12-31T23:44:28.770Z,-16.88
2022-12-31T23:48:08.930Z,-16.84
2022-12-31T23:51:12.246Z,-16.93
2022-12-31T23:54:16.344Z,-16.92
